Cancún, México

4:50 AM CDT en Agosto 22, 2014 (GMT -0500)
XE3ISS | Change Station
CLOSE
Current Station
Estación meteorológica personal
Location: Cancún, QUINTANA ROO
Altura: 33 ft
Estaciones meteorológicas cercanas

Alt 33 ft 21.15 °N, 86.85 °W | Updated 8 seconds ago

Partly Cloudy
Parcialmente nublado
79.3 ° F
Sensación térmica 83 ° F
N
1.0
Viento Variable Viento desde NNO
Gusts 4.0 mph

Hoy
Alta -- | Baja -- ° F
--% Posibilidad de precipitaciones
Ayer
Alta -- | Baja -- ° F
Precip. -- pul
6:28 AM 7:11 PM
Creciente menguante, 9% visible
Presión 29.96 pul
Visibilidad 7.0 Millas
Nubes Baja 1500 ft
Índice de calor 83 ° F
Punto de rocío 75 ° F
Humedad 87%
Precipitaciones 0.02 pul
Espesor de la nieve No disponible.
UV 0 de una escala de 12
Polen No disponible.
Calidad del aire No disponible.
Flu Activity No disponible.
METAR MMCZ 220941Z 04004KT 7SM FEW015 23/23 A2996 RMK 8/400 RTS

More Conditions Fewer Conditions

Presión 29.96 pul
Visibilidad 7.0 Millas
Nubes Baja 1500 ft
Índice de calor 83 ° F
Punto de rocío 75 ° F
Humedad 87%
Precipitaciones 0.02 pul
Espesor de la nieve No disponible.
UV 0 de una escala de 12
Polen No disponible.
Calidad del aire No disponible.
Flu Activity No disponible.
METAR MMCZ 220941Z 04004KT 7SM FEW015 23/23 A2996 RMK 8/400 RTS

More Conditions Fewer Conditions

10-Day Weather Forecast

Almanac

Astronomía

Aug. 22, 2014 Salida Puesta
Hora real 6:28 AM CDT 7:11 PM CDT
Crepúsculo civil 6:05 AM CDT 7:34 PM CDT
Crepúsculo náutico 5:38 AM CDT 8:01 PM CDT
Crepúsculo astronómico 5:11 AM CDT 8:28 PM CDT
Luna 4:00 AM CDT 5:13 PM CDT
Horas de luz 13h 29m
Horas de luz
12h 43m
Tomorrow will be 1m 6s shorter.
Creciente menguante, 9% of the Moon is Illuminated
Hoy
Creciente menguante
Ago 25
Nueva
Sep 2
Cuarto creciente
Sep 8
Luna llena
Sep 15
Cuarto menguante

Extremos de ayer

Máximos del país Bajas del país

Community

WunderPhotos

Upload Photos

1,746,146 ¡fotos cargadas!

Nearby

Calidad del aire

Not available.

Grosos de nieve

Not available.

Actividad de terremotos

Ciudad Distance Mag. Tiempo y dato
No hay informes recientes de la actividad sísmica.
Magnitud mínima muestra es 2,5.

Temperaturas de aguas costeras

Lugar Temperatura
Sin partes meteorológicos de las estaciones

Estaciones meteorológicas cercanas